sensor_id;sensor_type;location;lat;lon;timestamp;temperature;humidity
30467;DHT22;17258;52.560;13.046;2022-12-07T00:05:00;7.80;69.60
30467;DHT22;17258;52.560;13.046;2022-12-07T00:15:00;7.80;69.40
30467;DHT22;17258;52.560;13.046;2022-12-07T00:25:01;7.70;69.10
30467;DHT22;17258;52.560;13.046;2022-12-07T00:35:02;7.60;68.80
30467;DHT22;17258;52.560;13.046;2022-12-07T00:45:03;7.40;68.90
30467;DHT22;17258;52.560;13.046;2022-12-07T00:55:04;7.40;69.10
30467;DHT22;17258;52.560;13.046;2022-12-07T01:05:05;7.40;69.10
30467;DHT22;17258;52.560;13.046;2022-12-07T01:15:07;7.30;69.00
30467;DHT22;17258;52.560;13.046;2022-12-07T01:25:10;7.30;69.10
30467;DHT22;17258;52.560;13.046;2022-12-07T01:35:11;7.40;69.30
30467;DHT22;17258;52.560;13.046;2022-12-07T01:45:38;7.40;69.30
30467;DHT22;17258;52.560;13.046;2022-12-07T01:55:44;7.30;69.00
30467;DHT22;17258;52.560;13.046;2022-12-07T02:05:47;7.40;69.00
30467;DHT22;17258;52.560;13.046;2022-12-07T02:37:02;7.20;68.70
30467;DHT22;17258;52.560;13.046;2022-12-07T02:47:07;7.20;68.70
30467;DHT22;17258;52.560;13.046;2022-12-07T03:18:04;7.10;69.20
30467;DHT22;17258;52.560;13.046;2022-12-07T03:28:06;7.10;69.30
30467;DHT22;17258;52.560;13.046;2022-12-07T03:38:33;7.20;69.30
30467;DHT22;17258;52.560;13.046;2022-12-07T03:49:00;7.20;69.40
30467;DHT22;17258;52.560;13.046;2022-12-07T03:59:22;7.20;69.30
30467;DHT22;17258;52.560;13.046;2022-12-07T04:09:23;7.30;69.30
30467;DHT22;17258;52.560;13.046;2022-12-07T04:19:29;7.30;69.30
30467;DHT22;17258;52.560;13.046;2022-12-07T04:29:31;7.30;69.50
30467;DHT22;17258;52.560;13.046;2022-12-07T04:39:33;7.30;69.60
30467;DHT22;17258;52.560;13.046;2022-12-07T04:49:34;7.30;69.60
30467;DHT22;17258;52.560;13.046;2022-12-07T04:59:34;7.40;69.80
30467;DHT22;17258;52.560;13.046;2022-12-07T05:09:35;7.50;70.10
30467;DHT22;17258;52.560;13.046;2022-12-07T05:19:35;7.50;70.10
30467;DHT22;17258;52.560;13.046;2022-12-07T05:29:36;7.60;70.30
30467;DHT22;17258;52.560;13.046;2022-12-07T05:39:37;7.70;70.40
30467;DHT22;17258;52.560;13.046;2022-12-07T05:49:41;7.80;70.40
30467;DHT22;17258;52.560;13.046;2022-12-07T05:59:41;7.90;70.50
30467;DHT22;17258;52.560;13.046;2022-12-07T06:09:42;8.00;70.40
30467;DHT22;17258;52.560;13.046;2022-12-07T06:19:43;8.10;71.10
30467;DHT22;17258;52.560;13.046;2022-12-07T06:29:44;8.10;70.50
30467;DHT22;17258;52.560;13.046;2022-12-07T06:39:44;8.10;70.40
30467;DHT22;17258;52.560;13.046;2022-12-07T06:49:45;8.20;70.70
30467;DHT22;17258;52.560;13.046;2022-12-07T06:59:46;8.30;70.60
30467;DHT22;17258;52.560;13.046;2022-12-07T07:09:48;8.30;70.70
30467;DHT22;17258;52.560;13.046;2022-12-07T07:19:48;8.30;70.90
30467;DHT22;17258;52.560;13.046;2022-12-07T07:29:49;8.30;70.80
30467;DHT22;17258;52.560;13.046;2022-12-07T07:39:49;8.40;70.70
30467;DHT22;17258;52.560;13.046;2022-12-07T07:49:50;8.40;70.60
30467;DHT22;17258;52.560;13.046;2022-12-07T07:59:51;8.40;70.70
30467;DHT22;17258;52.560;13.046;2022-12-07T08:09:51;8.40;70.70
30467;DHT22;17258;52.560;13.046;2022-12-07T08:19:52;8.50;70.70
30467;DHT22;17258;52.560;13.046;2022-12-07T08:29:53;8.50;70.30
30467;DHT22;17258;52.560;13.046;2022-12-07T08:39:53;8.40;69.30
30467;DHT22;17258;52.560;13.046;2022-12-07T08:49:54;8.40;69.40
30467;DHT22;17258;52.560;13.046;2022-12-07T08:59:55;8.40;69.40
30467;DHT22;17258;52.560;13.046;2022-12-07T09:09:56;8.40;69.30
30467;DHT22;17258;52.560;13.046;2022-12-07T09:19:56;8.40;69.10
30467;DHT22;17258;52.560;13.046;2022-12-07T09:29:57;8.40;68.80
30467;DHT22;17258;52.560;13.046;2022-12-07T09:39:58;8.30;68.60
30467;DHT22;17258;52.560;13.046;2022-12-07T09:50:04;8.20;68.40
30467;DHT22;17258;52.560;13.046;2022-12-07T10:00:13;8.20;68.40
30467;DHT22;17258;52.560;13.046;2022-12-07T10:10:22;8.10;68.60
30467;DHT22;17258;52.560;13.046;2022-12-07T10:20:27;8.20;68.80
30467;DHT22;17258;52.560;13.046;2022-12-07T10:30:29;8.20;68.90
30467;DHT22;17258;52.560;13.046;2022-12-07T10:40:33;8.30;69.00
30467;DHT22;17258;52.560;13.046;2022-12-07T11:01:03;8.40;69.10
30467;DHT22;17258;52.560;13.046;2022-12-07T11:11:20;8.50;69.10
30467;DHT22;17258;52.560;13.046;2022-12-07T11:32:07;8.60;68.80
30467;DHT22;17258;52.560;13.046;2022-12-07T11:42:25;8.70;68.90
30467;DHT22;17258;52.560;13.046;2022-12-07T11:52:37;8.70;69.00
30467;DHT22;17258;52.560;13.046;2022-12-07T12:02:58;8.80;69.10
30467;DHT22;17258;52.560;13.046;2022-12-07T12:23:50;9.00;68.20
30467;DHT22;17258;52.560;13.046;2022-12-07T12:34:00;9.00;68.90
30467;DHT22;17258;52.560;13.046;2022-12-07T13:04:27;9.20;68.90
30467;DHT22;17258;52.560;13.046;2022-12-07T13:14:55;9.30;68.70
30467;DHT22;17258;52.560;13.046;2022-12-07T13:25:03;9.30;68.30
30467;DHT22;17258;52.560;13.046;2022-12-07T13:45:33;9.40;68.00
30467;DHT22;17258;52.560;13.046;2022-12-07T13:55:49;9.40;68.10
30467;DHT22;17258;52.560;13.046;2022-12-07T14:06:46;9.30;68.00
30467;DHT22;17258;52.560;13.046;2022-12-07T14:16:36;9.30;67.80
30467;DHT22;17258;52.560;13.046;2022-12-07T14:26:39;9.30;68.00
30467;DHT22;17258;52.560;13.046;2022-12-07T14:36:40;9.20;67.90
30467;DHT22;17258;52.560;13.046;2022-12-07T14:46:41;9.20;67.80
30467;DHT22;17258;52.560;13.046;2022-12-07T14:56:41;9.10;67.80
30467;DHT22;17258;52.560;13.046;2022-12-07T15:06:55;9.10;67.80
30467;DHT22;17258;52.560;13.046;2022-12-07T15:17:00;9.00;67.60
30467;DHT22;17258;52.560;13.046;2022-12-07T15:27:01;8.90;67.50
30467;DHT22;17258;52.560;13.046;2022-12-07T15:37:01;8.80;67.60
30467;DHT22;17258;52.560;13.046;2022-12-07T15:47:04;8.70;67.60
30467;DHT22;17258;52.560;13.046;2022-12-07T15:57:04;8.70;67.50
30467;DHT22;17258;52.560;13.046;2022-12-07T16:07:05;8.60;68.10
30467;DHT22;17258;52.560;13.046;2022-12-07T16:17:07;8.40;67.40
30467;DHT22;17258;52.560;13.046;2022-12-07T16:27:08;8.30;67.50
30467;DHT22;17258;52.560;13.046;2022-12-07T16:37:08;8.20;67.60
30467;DHT22;17258;52.560;13.046;2022-12-07T16:47:09;8.10;67.60
30467;DHT22;17258;52.560;13.046;2022-12-07T16:57:10;8.00;67.60
30467;DHT22;17258;52.560;13.046;2022-12-07T17:07:10;7.90;67.70
30467;DHT22;17258;52.560;13.046;2022-12-07T17:17:11;7.80;67.60
30467;DHT22;17258;52.560;13.046;2022-12-07T17:27:12;7.70;67.60
30467;DHT22;17258;52.560;13.046;2022-12-07T17:37:12;7.60;67.70
30467;DHT22;17258;52.560;13.046;2022-12-07T17:47:13;7.60;67.70
30467;DHT22;17258;52.560;13.046;2022-12-07T17:57:16;7.50;67.70
30467;DHT22;17258;52.560;13.046;2022-12-07T18:07:17;7.50;67.70
30467;DHT22;17258;52.560;13.046;2022-12-07T18:17:18;7.30;67.70
30467;DHT22;17258;52.560;13.046;2022-12-07T18:27:19;7.30;67.70
30467;DHT22;17258;52.560;13.046;2022-12-07T18:37:20;7.20;67.60
30467;DHT22;17258;52.560;13.046;2022-12-07T18:47:20;7.20;67.60
30467;DHT22;17258;52.560;13.046;2022-12-07T18:57:21;7.10;67.50
30467;DHT22;17258;52.560;13.046;2022-12-07T19:07:21;7.00;67.50
30467;DHT22;17258;52.560;13.046;2022-12-07T19:17:22;7.00;67.70
30467;DHT22;17258;52.560;13.046;2022-12-07T19:27:23;6.90;67.60
30467;DHT22;17258;52.560;13.046;2022-12-07T19:37:24;6.90;67.70
30467;DHT22;17258;52.560;13.046;2022-12-07T19:47:25;6.80;67.70
30467;DHT22;17258;52.560;13.046;2022-12-07T19:57:25;6.80;67.60
30467;DHT22;17258;52.560;13.046;2022-12-07T20:07:26;6.70;67.50
30467;DHT22;17258;52.560;13.046;2022-12-07T20:17:27;6.60;67.50
30467;DHT22;17258;52.560;13.046;2022-12-07T20:27:27;6.50;67.40
30467;DHT22;17258;52.560;13.046;2022-12-07T20:37:28;6.40;67.40
30467;DHT22;17258;52.560;13.046;2022-12-07T20:47:29;6.30;67.40
30467;DHT22;17258;52.560;13.046;2022-12-07T20:57:29;6.20;67.40
30467;DHT22;17258;52.560;13.046;2022-12-07T21:07:30;6.10;67.40
30467;DHT22;17258;52.560;13.046;2022-12-07T21:17:31;6.00;67.50
30467;DHT22;17258;52.560;13.046;2022-12-07T21:27:34;6.00;67.70
30467;DHT22;17258;52.560;13.046;2022-12-07T21:37:35;5.90;67.80
30467;DHT22;17258;52.560;13.046;2022-12-07T21:47:36;5.90;68.10
30467;DHT22;17258;52.560;13.046;2022-12-07T21:57:36;5.90;68.20
30467;DHT22;17258;52.560;13.046;2022-12-07T22:07:37;6.00;68.40
30467;DHT22;17258;52.560;13.046;2022-12-07T22:17:38;6.00;68.30
30467;DHT22;17258;52.560;13.046;2022-12-07T22:27:39;6.10;68.30
30467;DHT22;17258;52.560;13.046;2022-12-07T22:37:40;6.10;68.10
30467;DHT22;17258;52.560;13.046;2022-12-07T22:47:41;6.10;68.00
30467;DHT22;17258;52.560;13.046;2022-12-07T22:57:41;6.10;67.90
30467;DHT22;17258;52.560;13.046;2022-12-07T23:07:42;6.00;67.80
30467;DHT22;17258;52.560;13.046;2022-12-07T23:17:43;5.90;67.70
30467;DHT22;17258;52.560;13.046;2022-12-07T23:27:43;5.90;67.70
30467;DHT22;17258;52.560;13.046;2022-12-07T23:37:44;5.80;67.70
30467;DHT22;17258;52.560;13.046;2022-12-07T23:58:55;5.70;67.90
